createdAt,value
2018-12-30T00:01:00.954Z,1016.7
2018-12-30T00:02:02.333Z,1016.8
2018-12-30T00:03:03.710Z,1016.8
2018-12-30T00:04:05.057Z,1016.7
2018-12-30T00:05:06.402Z,1016.8
2018-12-30T00:06:07.749Z,1016.8
2018-12-30T00:07:09.096Z,1016.8
2018-12-30T00:08:10.474Z,1016.8
2018-12-30T00:09:11.851Z,1016.8
2018-12-30T00:10:13.200Z,1016.8
2018-12-30T00:11:14.698Z,1016.8
2018-12-30T00:12:16.085Z,1016.9
2018-12-30T00:13:17.510Z,1016.9
2018-12-30T00:14:18.886Z,1016.9
2018-12-30T00:15:20.231Z,1017.0
2018-12-30T00:16:21.610Z,1017.0
2018-12-30T00:17:22.991Z,1017.0
2018-12-30T00:18:24.332Z,1017.0
2018-12-30T00:19:25.717Z,1017.0
2018-12-30T00:20:27.101Z,1017.0
2018-12-30T00:21:28.489Z,1017.0
2018-12-30T00:22:29.868Z,1017.0
2018-12-30T00:23:31.251Z,1017.0
2018-12-30T00:24:32.632Z,1017.0
2018-12-30T00:25:34.013Z,1017.0
2018-12-30T00:26:35.392Z,1017.1
2018-12-30T00:27:36.778Z,1017.1
2018-12-30T00:28:38.128Z,1017.2
2018-12-30T00:29:39.504Z,1017.2
2018-12-30T00:30:40.884Z,1017.2
2018-12-30T00:31:42.272Z,1017.2
2018-12-30T00:32:43.654Z,1017.3
2018-12-30T00:33:45.040Z,1017.3
2018-12-30T00:34:46.426Z,1017.3
2018-12-30T00:35:47.767Z,1017.3
2018-12-30T00:36:49.144Z,1017.3
2018-12-30T00:37:50.523Z,1017.3
2018-12-30T00:38:51.871Z,1017.4
2018-12-30T00:39:53.256Z,1017.3
2018-12-30T00:40:54.639Z,1017.3
2018-12-30T00:41:56.025Z,1017.4
2018-12-30T00:42:57.411Z,1017.4
2018-12-30T00:43:58.792Z,1017.4
2018-12-30T00:45:00.253Z,1017.4
2018-12-30T00:46:01.515Z,1017.4
2018-12-30T00:47:02.899Z,1017.5
2018-12-30T00:48:04.310Z,1017.5
2018-12-30T00:49:05.745Z,1017.6
2018-12-30T00:50:07.133Z,1017.5
2018-12-30T00:51:08.519Z,1017.5
2018-12-30T00:52:09.900Z,1017.5
2018-12-30T00:53:11.281Z,1017.5
2018-12-30T00:54:12.661Z,1017.5
2018-12-30T00:55:14.042Z,1017.5
2018-12-30T00:56:15.426Z,1017.5
2018-12-30T00:57:16.809Z,1017.5
2018-12-30T00:58:18.159Z,1017.5
2018-12-30T00:59:19.535Z,1017.5
2018-12-30T01:00:20.918Z,1017.6
2018-12-30T01:01:22.296Z,1017.6
2018-12-30T01:02:23.762Z,1017.6
2018-12-30T01:03:25.189Z,1017.6
2018-12-30T01:04:26.569Z,1017.7
2018-12-30T01:05:27.949Z,1017.6
2018-12-30T01:06:29.327Z,1017.7
2018-12-30T01:07:30.674Z,1017.7
2018-12-30T01:08:32.022Z,1017.7
2018-12-30T01:09:33.362Z,1017.7
2018-12-30T01:10:34.748Z,1017.7
2018-12-30T01:11:36.133Z,1017.7
2018-12-30T01:12:37.509Z,1017.7
2018-12-30T01:13:38.892Z,1017.8
2018-12-30T01:14:40.269Z,1017.8
2018-12-30T01:15:41.652Z,1017.9
2018-12-30T01:16:43.031Z,1017.9
2018-12-30T01:17:44.412Z,1017.9
2018-12-30T01:18:45.758Z,1018.0
2018-12-30T01:19:47.139Z,1017.9
2018-12-30T01:20:48.521Z,1017.9
2018-12-30T01:21:49.905Z,1017.9
2018-12-30T01:22:51.284Z,1017.9
2018-12-30T01:23:52.664Z,1017.8
2018-12-30T01:24:54.046Z,1017.8
2018-12-30T01:25:55.431Z,1017.9
2018-12-30T01:26:56.811Z,1017.9
2018-12-30T01:27:58.189Z,1017.9
2018-12-30T01:28:59.532Z,1017.9
2018-12-30T01:30:00.912Z,1017.9
2018-12-30T01:31:02.290Z,1018.0
2018-12-30T01:32:03.674Z,1017.9
2018-12-30T01:33:05.057Z,1017.9
2018-12-30T01:34:06.439Z,1018.0
2018-12-30T01:35:07.821Z,1018.0
2018-12-30T01:36:09.204Z,1018.0
2018-12-30T01:37:10.583Z,1018.0
2018-12-30T01:38:11.961Z,1018.0
2018-12-30T01:39:13.306Z,1018.0
2018-12-30T01:40:14.690Z,1018.0
2018-12-30T01:41:16.071Z,1018.0
2018-12-30T01:42:17.449Z,1018.1
2018-12-30T01:43:18.822Z,1018.1
2018-12-30T01:44:20.207Z,1018.1
2018-12-30T01:45:21.593Z,1018.2
2018-12-30T01:46:22.974Z,1018.2
2018-12-30T01:47:24.359Z,1018.1
2018-12-30T01:48:25.739Z,1018.2
2018-12-30T01:49:27.116Z,1018.2
2018-12-30T01:50:28.461Z,1018.3
2018-12-30T01:51:33.165Z,1018.2
2018-12-30T01:52:31.189Z,1018.2
2018-12-30T01:53:32.656Z,1018.2
2018-12-30T01:54:34.052Z,1018.1
2018-12-30T01:55:35.436Z,1018.1
2018-12-30T01:56:36.817Z,1018.1
2018-12-30T01:57:38.201Z,1018.1
2018-12-30T01:58:39.582Z,1018.2
2018-12-30T01:59:40.963Z,1018.2
2018-12-30T02:00:42.312Z,1018.2
2018-12-30T02:01:43.692Z,1018.2
2018-12-30T02:02:45.070Z,1018.2
2018-12-30T02:03:46.449Z,1018.3
2018-12-30T02:04:47.831Z,1018.3
2018-12-30T02:05:49.217Z,1018.3
2018-12-30T02:06:50.656Z,1018.4
2018-12-30T02:07:51.945Z,1018.4
2018-12-30T02:08:53.327Z,1018.4
2018-12-30T02:09:54.709Z,1018.4
2018-12-30T02:10:56.051Z,1018.4
2018-12-30T02:11:57.433Z,1018.3
2018-12-30T02:12:58.814Z,1018.3
2018-12-30T02:14:00.193Z,1018.3
2018-12-30T02:15:01.581Z,1018.3
2018-12-30T02:16:02.966Z,1018.3
2018-12-30T02:17:04.341Z,1018.4
2018-12-30T02:18:05.726Z,1018.4
2018-12-30T02:19:07.105Z,1018.5
2018-12-30T02:20:08.486Z,1018.6
2018-12-30T02:21:09.870Z,1018.6
2018-12-30T02:22:11.214Z,1018.7
2018-12-30T02:23:12.600Z,1018.6
2018-12-30T02:24:13.980Z,1018.5
2018-12-30T02:25:15.359Z,1018.4
2018-12-30T02:26:16.740Z,1018.5
2018-12-30T02:27:18.118Z,1018.3
2018-12-30T02:28:19.501Z,1018.3
2018-12-30T02:29:20.885Z,1018.4
2018-12-30T02:30:22.269Z,1018.6
2018-12-30T02:31:23.674Z,1018.6
2018-12-30T02:32:25.055Z,1018.5
2018-12-30T02:33:26.397Z,1018.5
2018-12-30T02:34:27.775Z,1018.6
2018-12-30T02:35:29.155Z,1018.7
2018-12-30T02:36:30.541Z,1018.6
2018-12-30T02:37:31.891Z,1018.7
2018-12-30T02:38:33.263Z,1018.6
2018-12-30T02:39:34.644Z,1018.6
2018-12-30T02:40:36.024Z,1018.4
2018-12-30T02:41:37.412Z,1018.4
2018-12-30T02:42:38.789Z,1018.5
2018-12-30T02:43:40.136Z,1018.6
2018-12-30T02:44:41.513Z,1018.6
2018-12-30T02:45:43.052Z,1018.6
2018-12-30T02:46:44.524Z,1018.7
2018-12-30T02:47:45.905Z,1018.8
2018-12-30T02:48:47.288Z,1018.7
2018-12-30T02:49:48.634Z,1018.7
2018-12-30T02:50:50.014Z,1018.8
2018-12-30T02:51:51.401Z,1018.8
2018-12-30T02:52:52.784Z,1018.8
2018-12-30T02:53:54.161Z,1018.7
2018-12-30T02:54:55.505Z,1018.8
2018-12-30T02:55:56.888Z,1018.8
2018-12-30T02:56:58.269Z,1018.8
2018-12-30T02:57:59.651Z,1018.8
2018-12-30T02:59:01.041Z,1018.7
2018-12-30T03:00:02.427Z,1018.6
2018-12-30T03:01:03.810Z,1018.6
2018-12-30T03:02:05.192Z,1018.6
2018-12-30T03:03:06.570Z,1018.5
2018-12-30T03:04:08.055Z,1018.6
2018-12-30T03:05:09.441Z,1018.6
2018-12-30T03:06:10.790Z,1018.8
2018-12-30T03:07:12.249Z,1018.8
2018-12-30T03:08:13.613Z,1018.7
2018-12-30T03:09:14.995Z,1018.7
2018-12-30T03:10:16.375Z,1018.7
2018-12-30T03:11:17.756Z,1018.5
2018-12-30T03:12:19.139Z,1018.6
2018-12-30T03:13:20.539Z,1018.6
2018-12-30T03:14:21.917Z,1018.7
2018-12-30T03:15:23.297Z,1018.7
2018-12-30T03:16:24.676Z,1018.5
2018-12-30T03:17:26.055Z,1018.5
2018-12-30T03:18:27.402Z,1018.6
2018-12-30T03:19:28.789Z,1018.6
2018-12-30T03:20:30.172Z,1018.5
2018-12-30T03:21:31.582Z,1018.4
2018-12-30T03:22:32.961Z,1018.4
2018-12-30T03:23:34.346Z,1018.5
2018-12-30T03:24:35.729Z,1018.6
2018-12-30T03:25:37.109Z,1018.6
2018-12-30T03:26:38.492Z,1018.6
2018-12-30T03:27:39.874Z,1018.7
2018-12-30T03:28:41.255Z,1018.7
2018-12-30T03:29:42.635Z,1018.6
2018-12-30T03:30:44.017Z,1018.5
2018-12-30T03:31:45.399Z,1018.5
2018-12-30T03:32:46.872Z,1018.7
2018-12-30T03:33:48.243Z,1018.7
2018-12-30T03:34:49.622Z,1018.7
2018-12-30T03:35:51.005Z,1018.6
2018-12-30T03:36:52.523Z,1018.6
2018-12-30T03:37:53.946Z,1018.6
2018-12-30T03:38:55.325Z,1018.5
2018-12-30T03:39:56.765Z,1018.5
2018-12-30T03:40:58.086Z,1018.5
2018-12-30T03:41:59.470Z,1018.5
2018-12-30T03:43:00.852Z,1018.5
2018-12-30T03:44:02.227Z,1018.4
2018-12-30T03:45:03.607Z,1018.3
2018-12-30T03:46:04.988Z,1018.3
2018-12-30T03:47:06.371Z,1018.2
2018-12-30T03:48:07.752Z,1018.4
2018-12-30T03:49:09.132Z,1018.6
2018-12-30T03:50:10.512Z,1018.6
2018-12-30T03:51:11.918Z,1018.3
2018-12-30T03:52:13.294Z,1018.3
2018-12-30T03:53:14.672Z,1018.4
2018-12-30T03:54:16.060Z,1018.5
2018-12-30T03:55:17.438Z,1018.4
2018-12-30T03:56:18.826Z,1018.5
2018-12-30T03:57:20.202Z,1018.5
2018-12-30T03:58:21.585Z,1018.6
2018-12-30T03:59:22.966Z,1018.7
2018-12-30T04:00:24.352Z,1018.7
2018-12-30T04:01:25.731Z,1018.8
2018-12-30T04:02:27.115Z,1018.8
2018-12-30T04:03:28.495Z,1018.8
2018-12-30T04:04:29.874Z,1018.8
2018-12-30T04:05:31.253Z,1018.7
2018-12-30T04:06:32.645Z,1018.6
2018-12-30T04:07:34.031Z,1018.6
2018-12-30T04:08:35.410Z,1018.6
2018-12-30T04:09:36.792Z,1018.6
2018-12-30T04:10:38.178Z,1018.6
2018-12-30T04:11:39.556Z,1018.6
2018-12-30T04:12:40.939Z,1018.7
2018-12-30T04:13:42.316Z,1018.6
2018-12-30T04:14:43.698Z,1018.7
2018-12-30T04:15:45.081Z,1018.8
2018-12-30T04:16:46.463Z,1018.8
2018-12-30T04:17:47.843Z,1018.8
2018-12-30T04:18:49.225Z,1018.8
2018-12-30T04:19:50.606Z,1018.8
2018-12-30T04:20:51.991Z,1018.7
2018-12-30T04:21:53.375Z,1018.8
2018-12-30T04:22:54.790Z,1018.7
2018-12-30T04:23:56.139Z,1018.7
2018-12-30T04:24:57.524Z,1018.8
2018-12-30T04:25:58.902Z,1018.8
2018-12-30T04:27:00.284Z,1018.8
2018-12-30T04:28:01.722Z,1018.9
2018-12-30T04:29:03.126Z,1018.9
2018-12-30T04:30:04.509Z,1018.9
2018-12-30T04:31:05.895Z,1018.8
2018-12-30T04:32:07.277Z,1018.8
2018-12-30T04:33:08.656Z,1018.9
2018-12-30T04:34:10.040Z,1018.8
2018-12-30T04:35:11.421Z,1018.9
2018-12-30T04:36:12.802Z,1018.9
2018-12-30T04:37:14.181Z,1019.0
2018-12-30T04:38:15.561Z,1018.8
2018-12-30T04:39:16.943Z,1018.9
2018-12-30T04:40:18.323Z,1018.8
2018-12-30T04:41:19.761Z,1018.9
2018-12-30T04:42:21.094Z,1018.9
2018-12-30T04:43:22.482Z,1018.9
2018-12-30T04:44:23.862Z,1018.9
2018-12-30T04:45:25.247Z,1018.9
2018-12-30T04:46:26.638Z,1018.9
2018-12-30T04:47:28.020Z,1018.9
2018-12-30T04:48:29.407Z,1019.0
2018-12-30T04:49:30.789Z,1019.0
2018-12-30T04:50:32.172Z,1019.0
2018-12-30T04:51:33.553Z,1019.0
2018-12-30T04:52:34.933Z,1019.0
2018-12-30T04:53:36.318Z,1019.0
2018-12-30T04:54:37.694Z,1019.0
2018-12-30T04:55:39.076Z,1019.0
2018-12-30T04:56:40.471Z,1019.0
2018-12-30T04:57:41.852Z,1019.0
2018-12-30T04:58:43.238Z,1019.0
2018-12-30T04:59:44.623Z,1019.0
2018-12-30T05:00:46.007Z,1019.0
2018-12-30T05:01:47.391Z,1019.0
2018-12-30T05:02:48.770Z,1018.9
2018-12-30T05:03:50.150Z,1018.9
2018-12-30T05:04:51.534Z,1018.9
2018-12-30T05:05:52.912Z,1018.9
2018-12-30T05:06:54.299Z,1018.9
2018-12-30T05:07:55.679Z,1019.0
2018-12-30T05:08:57.061Z,1019.0
2018-12-30T05:09:58.443Z,1019.0
2018-12-30T05:10:59.819Z,1019.0
2018-12-30T05:12:01.202Z,1019.1
2018-12-30T05:13:02.591Z,1019.1
2018-12-30T05:14:03.967Z,1019.1
2018-12-30T05:15:05.352Z,1019.2
2018-12-30T05:16:06.730Z,1019.2
2018-12-30T05:17:08.112Z,1019.2
2018-12-30T05:18:09.493Z,1019.2
2018-12-30T05:19:10.882Z,1019.2
2018-12-30T05:20:12.386Z,1019.2
2018-12-30T05:21:13.768Z,1019.3
2018-12-30T05:22:15.150Z,1019.2
2018-12-30T05:23:16.533Z,1019.2
2018-12-30T05:24:17.911Z,1019.2
2018-12-30T05:25:19.295Z,1019.2
2018-12-30T05:26:20.676Z,1019.2
2018-12-30T05:27:22.058Z,1019.2
2018-12-30T05:28:23.442Z,1019.2
2018-12-30T05:29:24.821Z,1019.2
2018-12-30T05:30:26.204Z,1019.2
2018-12-30T05:31:27.583Z,1019.3
2018-12-30T05:32:28.962Z,1019.3
2018-12-30T05:33:30.340Z,1019.4
2018-12-30T05:34:31.720Z,1019.3
2018-12-30T05:35:33.117Z,1019.3
2018-12-30T05:36:34.492Z,1019.3
2018-12-30T05:37:35.873Z,1019.3
2018-12-30T05:38:37.255Z,1019.3
2018-12-30T05:39:38.635Z,1019.3
2018-12-30T05:40:40.016Z,1019.3
2018-12-30T05:41:41.397Z,1019.3
2018-12-30T05:42:42.778Z,1019.3
2018-12-30T05:43:44.163Z,1019.3
2018-12-30T05:44:45.543Z,1019.4
2018-12-30T05:45:46.940Z,1019.4
2018-12-30T05:46:48.333Z,1019.4
2018-12-30T05:47:49.705Z,1019.4
2018-12-30T05:48:51.089Z,1019.4
2018-12-30T05:49:52.469Z,1019.5
2018-12-30T05:50:53.853Z,1019.5
2018-12-30T05:51:55.234Z,1019.5
2018-12-30T05:52:56.615Z,1019.5
2018-12-30T05:53:57.996Z,1019.5
2018-12-30T05:54:59.376Z,1019.5
2018-12-30T05:56:00.759Z,1019.4
2018-12-30T05:57:02.142Z,1019.4
2018-12-30T05:58:03.525Z,1019.4
2018-12-30T05:59:04.905Z,1019.4
2018-12-30T06:00:06.291Z,1019.4
2018-12-30T06:01:07.669Z,1019.4
2018-12-30T06:02:09.048Z,1019.4
2018-12-30T06:03:10.432Z,1019.4
2018-12-30T06:04:11.821Z,1019.4
2018-12-30T06:05:13.199Z,1019.4
2018-12-30T06:06:14.578Z,1019.3
2018-12-30T06:07:15.962Z,1019.4
2018-12-30T06:08:17.343Z,1019.4
2018-12-30T06:09:18.726Z,1019.4
2018-12-30T06:10:20.224Z,1019.4
2018-12-30T06:11:21.679Z,1019.5
2018-12-30T06:12:23.061Z,1019.5
2018-12-30T06:13:24.467Z,1019.5
2018-12-30T06:14:25.846Z,1019.5
2018-12-30T06:15:27.229Z,1019.5
2018-12-30T06:16:28.611Z,1019.6
2018-12-30T06:17:29.994Z,1019.7
2018-12-30T06:18:31.445Z,1019.7
2018-12-30T06:19:32.762Z,1019.5
2018-12-30T06:20:34.144Z,1019.5
2018-12-30T06:21:35.525Z,1019.5
2018-12-30T06:22:36.909Z,1019.5
2018-12-30T06:23:38.289Z,1019.5
2018-12-30T06:24:39.679Z,1019.5
2018-12-30T06:25:41.059Z,1019.4
2018-12-30T06:26:42.441Z,1019.5
2018-12-30T06:27:43.820Z,1019.6
2018-12-30T06:28:45.200Z,1019.6
2018-12-30T06:29:46.616Z,1019.6
2018-12-30T06:30:48.004Z,1019.5
2018-12-30T06:31:49.385Z,1019.6
2018-12-30T06:32:50.773Z,1019.7
2018-12-30T06:33:52.149Z,1019.7
2018-12-30T06:34:53.533Z,1019.6
2018-12-30T06:35:54.913Z,1019.5
2018-12-30T06:36:56.294Z,1019.6
2018-12-30T06:37:57.676Z,1019.7
2018-12-30T06:38:59.057Z,1019.6
2018-12-30T06:40:00.440Z,1019.6
2018-12-30T06:41:01.820Z,1019.8
2018-12-30T06:42:03.198Z,1019.7
2018-12-30T06:43:04.580Z,1019.8
2018-12-30T06:44:05.962Z,1019.8
2018-12-30T06:45:07.342Z,1019.9
2018-12-30T06:46:08.725Z,1019.9
2018-12-30T06:47:10.109Z,1019.9
2018-12-30T06:48:11.493Z,1020.0
2018-12-30T06:49:12.873Z,1020.0
2018-12-30T06:50:14.251Z,1020.0
2018-12-30T06:51:15.633Z,1020.0
2018-12-30T06:52:17.014Z,1020.1
2018-12-30T06:53:18.396Z,1020.1
2018-12-30T06:54:19.779Z,1020.0
2018-12-30T06:55:21.157Z,1019.9
2018-12-30T06:56:22.539Z,1020.0
2018-12-30T06:57:23.918Z,1020.0
2018-12-30T06:58:25.295Z,1020.1
2018-12-30T06:59:26.681Z,1020.1
2018-12-30T07:00:28.058Z,1020.1
2018-12-30T07:01:29.559Z,1020.1
2018-12-30T07:02:30.990Z,1020.1
2018-12-30T07:03:32.370Z,1020.1
2018-12-30T07:04:33.749Z,1020.2
2018-12-30T07:05:35.129Z,1020.2
2018-12-30T07:06:38.331Z,1020.3
2018-12-30T07:07:37.857Z,1020.3
2018-12-30T07:08:39.242Z,1020.4
2018-12-30T07:09:40.630Z,1020.3
2018-12-30T07:10:42.009Z,1020.4
2018-12-30T07:11:43.389Z,1020.4
2018-12-30T07:12:44.766Z,1020.4
2018-12-30T07:13:46.150Z,1020.5
2018-12-30T07:14:47.530Z,1020.5
2018-12-30T07:15:48.914Z,1020.5
2018-12-30T07:16:50.298Z,1020.5
2018-12-30T07:17:51.672Z,1020.6
2018-12-30T07:18:53.053Z,1020.5
2018-12-30T07:19:54.431Z,1020.5
2018-12-30T07:20:55.813Z,1020.6
2018-12-30T07:21:57.194Z,1020.6
2018-12-30T07:23:05.617Z,1020.6
2018-12-30T07:23:59.924Z,1020.5
2018-12-30T07:25:01.303Z,1020.6
2018-12-30T07:26:02.689Z,1020.5
2018-12-30T07:27:04.070Z,1020.5
2018-12-30T07:28:05.451Z,1020.5
2018-12-30T07:29:06.832Z,1020.5
2018-12-30T07:30:08.216Z,1020.6
2018-12-30T07:31:09.602Z,1020.6
2018-12-30T07:32:10.980Z,1020.5
2018-12-30T07:33:12.359Z,1020.5
2018-12-30T07:34:13.741Z,1020.5
2018-12-30T07:35:15.119Z,1020.5
2018-12-30T07:36:16.503Z,1020.5
2018-12-30T07:37:17.906Z,1020.6
2018-12-30T07:38:19.287Z,1020.5
2018-12-30T07:39:20.668Z,1020.5
2018-12-30T07:40:22.047Z,1020.5
2018-12-30T07:41:23.428Z,1020.5
2018-12-30T07:42:24.816Z,1020.5
2018-12-30T07:43:26.162Z,1020.5
2018-12-30T07:44:27.545Z,1020.5
2018-12-30T07:45:28.928Z,1020.5
2018-12-30T07:46:30.309Z,1020.4
2018-12-30T07:47:31.694Z,1020.3
2018-12-30T07:48:33.075Z,1020.3
2018-12-30T07:49:34.459Z,1020.4
2018-12-30T07:50:35.842Z,1020.4
2018-12-30T07:51:37.228Z,1020.4
2018-12-30T07:52:38.619Z,1020.4
2018-12-30T07:53:40.106Z,1020.5
2018-12-30T07:54:41.506Z,1020.5
2018-12-30T07:55:42.889Z,1020.4
2018-12-30T07:56:44.279Z,1020.2
2018-12-30T07:57:45.658Z,1020.2
2018-12-30T07:58:47.042Z,1020.4
2018-12-30T07:59:48.427Z,1020.4
2018-12-30T08:00:49.808Z,1020.4
2018-12-30T08:01:51.191Z,1020.4
2018-12-30T08:02:52.575Z,1020.3
2018-12-30T08:03:53.962Z,1020.2
2018-12-30T08:04:55.345Z,1020.2
2018-12-30T08:05:56.733Z,1020.2
2018-12-30T08:06:58.115Z,1020.2
2018-12-30T08:07:59.502Z,1020.2
2018-12-30T08:09:00.888Z,1020.1
2018-12-30T08:10:02.272Z,1020.2
2018-12-30T08:11:03.660Z,1020.2
2018-12-30T08:12:05.047Z,1020.1
2018-12-30T08:13:06.431Z,1020.2
2018-12-30T08:14:07.821Z,1020.3
2018-12-30T08:15:09.205Z,1020.3
2018-12-30T08:16:10.590Z,1020.3
2018-12-30T08:17:11.977Z,1020.3
2018-12-30T08:18:13.357Z,1020.3
2018-12-30T08:19:14.741Z,1020.2
2018-12-30T08:20:16.129Z,1020.2
2018-12-30T08:21:17.536Z,1020.2
2018-12-30T08:22:18.917Z,1020.2
2018-12-30T08:23:21.813Z,1020.3
2018-12-30T08:24:21.650Z,1020.3
2018-12-30T08:25:23.032Z,1020.4
2018-12-30T08:26:24.417Z,1020.4
2018-12-30T08:27:25.803Z,1020.4
2018-12-30T08:28:27.189Z,1020.4
2018-12-30T08:29:28.571Z,1020.4
2018-12-30T08:30:29.955Z,1020.4
2018-12-30T08:31:31.339Z,1020.5
2018-12-30T08:32:32.726Z,1020.5
2018-12-30T08:33:34.109Z,1020.5
2018-12-30T08:34:35.497Z,1020.5
2018-12-30T08:35:36.882Z,1020.5
2018-12-30T08:36:38.264Z,1020.5
2018-12-30T08:37:39.645Z,1020.5
2018-12-30T08:38:41.028Z,1020.5
2018-12-30T08:39:42.417Z,1020.6
2018-12-30T08:40:43.799Z,1020.7
2018-12-30T08:41:45.312Z,1020.7
2018-12-30T08:42:46.701Z,1020.7
2018-12-30T08:43:48.162Z,1020.8
2018-12-30T08:44:49.666Z,1020.8
2018-12-30T08:45:51.047Z,1020.7
2018-12-30T08:46:52.434Z,1020.8
2018-12-30T08:47:53.826Z,1020.8
2018-12-30T08:48:55.213Z,1020.9
2018-12-30T08:49:56.599Z,1020.9
2018-12-30T08:50:58.103Z,1020.9
2018-12-30T08:51:59.490Z,1020.9
2018-12-30T08:53:00.872Z,1020.9
2018-12-30T08:54:02.257Z,1020.9
2018-12-30T08:55:03.642Z,1020.8
2018-12-30T08:56:05.027Z,1020.9
2018-12-30T08:57:06.418Z,1020.8
2018-12-30T08:58:07.799Z,1020.8
2018-12-30T08:59:09.182Z,1020.8
2018-12-30T09:00:10.564Z,1020.8
2018-12-30T09:01:11.950Z,1020.8
2018-12-30T09:02:13.335Z,1020.8
2018-12-30T09:03:14.720Z,1020.9
2018-12-30T09:04:16.120Z,1020.9
2018-12-30T09:05:17.484Z,1020.8
2018-12-30T09:06:18.870Z,1020.8
2018-12-30T09:07:20.254Z,1020.8
2018-12-30T09:08:21.642Z,1020.8
2018-12-30T09:09:23.027Z,1020.8
2018-12-30T09:10:24.411Z,1020.9
2018-12-30T09:11:25.794Z,1020.9
2018-12-30T09:12:27.177Z,1020.9
2018-12-30T09:13:28.560Z,1020.9
2018-12-30T09:14:29.945Z,1020.9
2018-12-30T09:15:31.334Z,1020.8
2018-12-30T09:16:32.726Z,1020.8
2018-12-30T09:17:34.106Z,1020.8
2018-12-30T09:18:35.494Z,1020.9
2018-12-30T09:19:36.878Z,1020.9
2018-12-30T09:20:38.261Z,1020.9
2018-12-30T09:21:39.646Z,1020.9
2018-12-30T09:22:41.035Z,1021.0
2018-12-30T09:23:42.426Z,1021.0
2018-12-30T09:24:43.806Z,1020.9
2018-12-30T09:25:45.336Z,1021.0
2018-12-30T09:26:46.723Z,1021.0
2018-12-30T09:27:48.109Z,1021.0
2018-12-30T09:28:49.495Z,1021.0
2018-12-30T09:29:50.884Z,1021.1
2018-12-30T09:30:52.267Z,1021.1
2018-12-30T09:31:53.660Z,1021.1
2018-12-30T09:32:55.042Z,1021.1
2018-12-30T09:33:56.464Z,1021.0
2018-12-30T09:34:57.950Z,1021.0
2018-12-30T09:35:59.332Z,1021.0
2018-12-30T09:37:00.719Z,1021.0
2018-12-30T09:38:02.102Z,1020.9
2018-12-30T09:39:03.491Z,1021.1
2018-12-30T09:40:04.911Z,1021.1
2018-12-30T09:41:06.350Z,1021.1
2018-12-30T09:42:07.727Z,1021.1
2018-12-30T09:43:09.110Z,1021.0
2018-12-30T09:44:10.499Z,1021.0
2018-12-30T09:45:11.886Z,1021.0
2018-12-30T09:46:13.287Z,1021.0
2018-12-30T09:47:14.688Z,1020.9
2018-12-30T09:48:16.076Z,1020.9
2018-12-30T09:49:17.459Z,1020.8
2018-12-30T09:50:18.893Z,1020.9
2018-12-30T09:51:20.277Z,1020.8
2018-12-30T09:52:21.692Z,1020.8
2018-12-30T09:53:23.080Z,1020.8
2018-12-30T09:54:24.471Z,1020.9
2018-12-30T09:55:25.853Z,1020.8
2018-12-30T09:56:27.236Z,1020.9
2018-12-30T09:57:28.620Z,1020.9
2018-12-30T09:58:30.004Z,1020.9
2018-12-30T09:59:31.398Z,1020.9
2018-12-30T10:00:32.783Z,1020.9
2018-12-30T10:01:34.168Z,1020.9
2018-12-30T10:02:35.559Z,1020.9
2018-12-30T10:03:36.974Z,1020.9
2018-12-30T10:04:38.360Z,1021.0
2018-12-30T10:05:39.744Z,1021.0
2018-12-30T10:06:41.129Z,1021.1
2018-12-30T10:07:42.516Z,1021.1
2018-12-30T10:08:43.903Z,1021.1
2018-12-30T10:09:45.293Z,1021.1
2018-12-30T10:10:46.676Z,1021.1
2018-12-30T10:11:48.061Z,1021.1
2018-12-30T10:12:49.459Z,1021.1
2018-12-30T10:13:50.844Z,1021.1
2018-12-30T10:14:52.232Z,1021.2
2018-12-30T10:15:53.614Z,1021.1
2018-12-30T10:16:54.995Z,1021.1
2018-12-30T10:17:56.378Z,1021.1
2018-12-30T10:18:57.760Z,1021.1
2018-12-30T10:19:59.146Z,1021.2
2018-12-30T10:21:00.532Z,1021.2
2018-12-30T10:22:01.921Z,1021.2
2018-12-30T10:23:03.305Z,1021.2
2018-12-30T10:24:04.686Z,1021.2
2018-12-30T10:25:06.118Z,1021.3
2018-12-30T10:26:07.525Z,1021.3
2018-12-30T10:27:08.912Z,1021.3
2018-12-30T10:28:10.306Z,1021.4
2018-12-30T10:29:11.694Z,1021.4
2018-12-30T10:30:13.082Z,1021.4
2018-12-30T10:31:14.464Z,1021.4
2018-12-30T10:32:15.853Z,1021.4
2018-12-30T10:33:17.235Z,1021.4
2018-12-30T10:34:18.621Z,1021.4
2018-12-30T10:35:20.008Z,1021.4
2018-12-30T10:36:21.395Z,1021.4
2018-12-30T10:37:22.784Z,1021.4
2018-12-30T10:38:24.167Z,1021.4
2018-12-30T10:39:25.551Z,1021.4
2018-12-30T10:40:26.938Z,1021.4
2018-12-30T10:41:28.326Z,1021.4
2018-12-30T10:42:29.711Z,1021.4
2018-12-30T10:43:31.098Z,1021.3
2018-12-30T10:44:32.491Z,1021.4
2018-12-30T10:45:33.876Z,1021.3
2018-12-30T10:46:35.258Z,1021.3
2018-12-30T10:47:36.646Z,1021.3
2018-12-30T10:48:38.033Z,1021.3
2018-12-30T10:49:39.420Z,1021.3
2018-12-30T10:50:40.805Z,1021.2
2018-12-30T10:51:42.190Z,1021.3
2018-12-30T10:52:43.574Z,1021.3
2018-12-30T10:53:44.958Z,1021.3
2018-12-30T10:54:46.364Z,1021.2
2018-12-30T10:55:47.750Z,1021.3
2018-12-30T10:56:49.132Z,1021.3
2018-12-30T10:57:50.520Z,1021.3
2018-12-30T10:58:51.906Z,1021.3
2018-12-30T10:59:53.290Z,1021.4
2018-12-30T11:00:54.677Z,1021.4
2018-12-30T11:01:56.059Z,1021.4
2018-12-30T11:02:57.443Z,1021.4
2018-12-30T11:03:58.827Z,1021.4
2018-12-30T11:05:00.269Z,1021.4
2018-12-30T11:06:01.602Z,1021.4
2018-12-30T11:07:02.987Z,1021.4
2018-12-30T11:08:04.373Z,1021.3
2018-12-30T11:09:05.762Z,1021.3
2018-12-30T11:10:07.152Z,1021.2
2018-12-30T11:11:08.540Z,1021.2
2018-12-30T11:12:09.924Z,1021.1
2018-12-30T11:13:11.314Z,1021.2
2018-12-30T11:14:12.700Z,1021.1
2018-12-30T11:15:14.181Z,1021.1
2018-12-30T11:16:15.666Z,1021.1
2018-12-30T11:17:17.056Z,1021.0
2018-12-30T11:18:18.443Z,1021.0
2018-12-30T11:19:19.831Z,1021.0
2018-12-30T11:20:21.224Z,1021.0
2018-12-30T11:21:22.609Z,1021.0
2018-12-30T11:22:23.993Z,1020.9
2018-12-30T11:23:25.385Z,1020.9
2018-12-30T11:24:26.766Z,1020.8
2018-12-30T11:25:28.158Z,1020.9
2018-12-30T11:26:29.551Z,1020.9
2018-12-30T11:27:30.939Z,1020.9
2018-12-30T11:28:32.322Z,1020.9
2018-12-30T11:29:33.709Z,1020.8
2018-12-30T11:30:35.096Z,1020.8
2018-12-30T11:31:36.484Z,1020.9
2018-12-30T11:32:37.872Z,1020.9
2018-12-30T11:33:39.259Z,1020.8
2018-12-30T11:34:40.653Z,1020.8
2018-12-30T11:35:42.039Z,1020.7
2018-12-30T11:36:43.423Z,1020.7
2018-12-30T11:37:44.837Z,1020.7
2018-12-30T11:38:46.219Z,1020.6
2018-12-30T11:39:47.606Z,1020.7
2018-12-30T11:40:48.994Z,1020.6
2018-12-30T11:41:50.385Z,1020.6
2018-12-30T11:42:51.769Z,1020.7
2018-12-30T11:43:53.160Z,1020.7
2018-12-30T11:44:54.553Z,1020.7
2018-12-30T11:45:56.008Z,1020.7
2018-12-30T11:46:59.783Z,1020.7
2018-12-30T11:48:01.171Z,1020.7
2018-12-30T11:49:02.560Z,1020.7
2018-12-30T11:50:03.944Z,1020.7
2018-12-30T11:51:05.325Z,1020.7
2018-12-30T11:52:06.714Z,1020.6
2018-12-30T11:53:08.106Z,1020.5
2018-12-30T11:54:16.241Z,1020.5
2018-12-30T11:55:10.840Z,1020.5
2018-12-30T11:56:12.231Z,1020.5
2018-12-30T11:57:13.616Z,1020.5
2018-12-30T11:58:15.006Z,1020.5
2018-12-30T11:59:16.390Z,1020.5
2018-12-30T12:00:17.775Z,1020.5
2018-12-30T12:01:19.358Z,1020.4
2018-12-30T12:02:24.004Z,1020.4
2018-12-30T12:03:22.139Z,1020.5
2018-12-30T12:04:23.519Z,1020.5
2018-12-30T12:05:24.903Z,1020.5
2018-12-30T12:06:26.287Z,1020.5
2018-12-30T12:07:27.672Z,1020.4
2018-12-30T12:08:29.058Z,1020.4
2018-12-30T12:09:30.442Z,1020.5
2018-12-30T12:10:31.835Z,1020.4
2018-12-30T12:11:33.222Z,1020.4
2018-12-30T12:12:35.574Z,1020.4
2018-12-30T12:13:35.950Z,1020.4
2018-12-30T12:14:37.332Z,1020.5
2018-12-30T12:15:38.715Z,1020.4
2018-12-30T12:16:40.099Z,1020.4
2018-12-30T12:17:41.491Z,1020.5
2018-12-30T12:18:42.877Z,1020.5
2018-12-30T12:19:44.283Z,1020.5
2018-12-30T12:20:45.682Z,1020.5
2018-12-30T12:21:47.120Z,1020.4
2018-12-30T12:22:48.452Z,1020.4
2018-12-30T12:23:49.839Z,1020.4
2018-12-30T12:24:51.220Z,1020.5
2018-12-30T12:25:52.606Z,1020.4
2018-12-30T12:26:53.989Z,1020.5
2018-12-30T12:27:55.375Z,1020.4
2018-12-30T12:28:56.759Z,1020.4
2018-12-30T12:29:58.145Z,1020.4
2018-12-30T12:30:59.533Z,1020.3
2018-12-30T12:32:00.917Z,1020.3
2018-12-30T12:33:02.300Z,1020.3
2018-12-30T12:34:03.701Z,1020.4
2018-12-30T12:35:05.087Z,1020.4
2018-12-30T12:36:06.469Z,1020.3
2018-12-30T12:37:07.855Z,1020.3
2018-12-30T12:38:09.243Z,1020.4
2018-12-30T12:39:10.630Z,1020.4
2018-12-30T12:40:12.134Z,1020.4
2018-12-30T12:41:13.540Z,1020.4
2018-12-30T12:42:14.925Z,1020.3
2018-12-30T12:43:16.313Z,1020.3
2018-12-30T12:44:17.692Z,1020.3
2018-12-30T12:45:19.077Z,1020.3
2018-12-30T12:46:20.462Z,1020.4